sensor_id;sensor_type;location;lat;lon;timestamp;P1;durP1;ratioP1;P2;durP2;ratioP2
50779;SDS011;36748;37.428;-121.972;2022-08-01T00:02:04;1.13;;;0.70;;
50779;SDS011;36748;37.428;-121.972;2022-08-01T00:04:30;0.60;;;0.60;;
50779;SDS011;36748;37.428;-121.972;2022-08-01T00:06:56;0.73;;;0.73;;
50779;SDS011;36748;37.428;-121.972;2022-08-01T00:09:22;2.05;;;0.63;;
50779;SDS011;36748;37.428;-121.972;2022-08-01T00:11:48;3.53;;;0.93;;
50779;SDS011;36748;37.428;-121.972;2022-08-01T00:14:14;1.75;;;0.95;;
50779;SDS011;36748;37.428;-121.972;2022-08-01T00:16:41;1.15;;;0.70;;
50779;SDS011;36748;37.428;-121.972;2022-08-01T00:19:07;1.35;;;0.80;;
50779;SDS011;36748;37.428;-121.972;2022-08-01T00:21:33;2.53;;;0.90;;
50779;SDS011;36748;37.428;-121.972;2022-08-01T00:23:59;1.35;;;0.90;;
50779;SDS011;36748;37.428;-121.972;2022-08-01T00:26:25;2.55;;;0.80;;
50779;SDS011;36748;37.428;-121.972;2022-08-01T00:28:51;2.17;;;0.70;;
50779;SDS011;36748;37.428;-121.972;2022-08-01T00:31:18;1.10;;;0.63;;
50779;SDS011;36748;37.428;-121.972;2022-08-01T00:33:44;1.73;;;0.60;;
50779;SDS011;36748;37.428;-121.972;2022-08-01T00:36:10;2.58;;;1.00;;
50779;SDS011;36748;37.428;-121.972;2022-08-01T00:38:36;1.15;;;0.60;;
50779;SDS011;36748;37.428;-121.972;2022-08-01T00:41:02;2.42;;;0.50;;
50779;SDS011;36748;37.428;-121.972;2022-08-01T00:43:28;1.23;;;0.60;;
50779;SDS011;36748;37.428;-121.972;2022-08-01T00:45:54;0.60;;;0.60;;
50779;SDS011;36748;37.428;-121.972;2022-08-01T00:48:20;1.60;;;0.73;;
50779;SDS011;36748;37.428;-121.972;2022-08-01T00:50:47;0.50;;;0.50;;
50779;SDS011;36748;37.428;-121.972;2022-08-01T00:53:13;1.95;;;0.60;;
50779;SDS011;36748;37.428;-121.972;2022-08-01T00:55:39;3.30;;;0.90;;
50779;SDS011;36748;37.428;-121.972;2022-08-01T00:58:06;0.50;;;0.50;;
50779;SDS011;36748;37.428;-121.972;2022-08-01T01:00:33;1.27;;;0.73;;
50779;SDS011;36748;37.428;-121.972;2022-08-01T01:03:00;1.52;;;0.50;;
50779;SDS011;36748;37.428;-121.972;2022-08-01T01:05:26;0.95;;;0.50;;
50779;SDS011;36748;37.428;-121.972;2022-08-01T01:13:11;3.75;;;0.77;;
50779;SDS011;36748;37.428;-121.972;2022-08-01T01:18:09;2.75;;;0.50;;
50779;SDS011;36748;37.428;-121.972;2022-08-01T01:23:44;0.40;;;0.40;;
50779;SDS011;36748;37.428;-121.972;2022-08-01T01:26:19;1.77;;;0.50;;
50779;SDS011;36748;37.428;-121.972;2022-08-01T01:31:42;0.40;;;0.40;;
50779;SDS011;36748;37.428;-121.972;2022-08-01T01:34:15;0.65;;;0.50;;
50779;SDS011;36748;37.428;-121.972;2022-08-01T01:36:43;1.25;;;0.55;;
50779;SDS011;36748;37.428;-121.972;2022-08-01T01:39:30;0.52;;;0.32;;
50779;SDS011;36748;37.428;-121.972;2022-08-01T01:41:56;0.73;;;0.35;;
50779;SDS011;36748;37.428;-121.972;2022-08-01T01:44:23;1.38;;;0.45;;
50779;SDS011;36748;37.428;-121.972;2022-08-01T01:46:51;0.45;;;0.30;;
50779;SDS011;36748;37.428;-121.972;2022-08-01T01:49:19;1.27;;;0.50;;
50779;SDS011;36748;37.428;-121.972;2022-08-01T01:51:47;3.08;;;0.40;;
50779;SDS011;36748;37.428;-121.972;2022-08-01T01:54:14;3.35;;;0.45;;
50779;SDS011;36748;37.428;-121.972;2022-08-01T01:56:40;0.43;;;0.43;;
50779;SDS011;36748;37.428;-121.972;2022-08-01T01:59:18;4.15;;;0.40;;
50779;SDS011;36748;37.428;-121.972;2022-08-01T02:01:49;0.90;;;0.40;;
50779;SDS011;36748;37.428;-121.972;2022-08-01T02:04:17;2.05;;;0.40;;
50779;SDS011;36748;37.428;-121.972;2022-08-01T02:06:44;1.70;;;0.57;;
50779;SDS011;36748;37.428;-121.972;2022-08-01T02:09:14;0.75;;;0.30;;
50779;SDS011;36748;37.428;-121.972;2022-08-01T02:11:44;2.45;;;0.50;;
50779;SDS011;36748;37.428;-121.972;2022-08-01T02:14:13;1.38;;;0.60;;
50779;SDS011;36748;37.428;-121.972;2022-08-01T02:16:40;1.55;;;0.40;;
50779;SDS011;36748;37.428;-121.972;2022-08-01T02:19:08;0.30;;;0.30;;
50779;SDS011;36748;37.428;-121.972;2022-08-01T02:21:40;0.45;;;0.45;;
50779;SDS011;36748;37.428;-121.972;2022-08-01T02:24:14;0.98;;;0.30;;
50779;SDS011;36748;37.428;-121.972;2022-08-01T02:27:07;0.50;;;0.47;;
50779;SDS011;36748;37.428;-121.972;2022-08-01T02:29:37;4.68;;;0.57;;
50779;SDS011;36748;37.428;-121.972;2022-08-01T02:32:07;1.90;;;0.52;;
50779;SDS011;36748;37.428;-121.972;2022-08-01T02:34:35;0.77;;;0.30;;
50779;SDS011;36748;37.428;-121.972;2022-08-01T02:37:02;0.98;;;0.65;;
50779;SDS011;36748;37.428;-121.972;2022-08-01T02:39:29;1.48;;;0.50;;
50779;SDS011;36748;37.428;-121.972;2022-08-01T02:41:57;4.18;;;0.50;;
50779;SDS011;36748;37.428;-121.972;2022-08-01T02:44:26;8.40;;;0.88;;
50779;SDS011;36748;37.428;-121.972;2022-08-01T02:46:57;3.10;;;0.50;;
50779;SDS011;36748;37.428;-121.972;2022-08-01T02:49:29;2.70;;;0.60;;
50779;SDS011;36748;37.428;-121.972;2022-08-01T02:52:02;2.25;;;0.70;;
50779;SDS011;36748;37.428;-121.972;2022-08-01T02:54:31;5.75;;;0.73;;
50779;SDS011;36748;37.428;-121.972;2022-08-01T02:56:58;4.45;;;1.08;;
50779;SDS011;36748;37.428;-121.972;2022-08-01T02:59:26;1.25;;;1.10;;
50779;SDS011;36748;37.428;-121.972;2022-08-01T03:01:56;5.57;;;1.15;;
50779;SDS011;36748;37.428;-121.972;2022-08-01T03:04:23;2.38;;;0.90;;
50779;SDS011;36748;37.428;-121.972;2022-08-01T03:06:50;1.67;;;1.27;;
50779;SDS011;36748;37.428;-121.972;2022-08-01T03:09:20;2.47;;;1.15;;
50779;SDS011;36748;37.428;-121.972;2022-08-01T03:11:47;1.63;;;1.17;;
50779;SDS011;36748;37.428;-121.972;2022-08-01T03:14:14;1.40;;;1.10;;
50779;SDS011;36748;37.428;-121.972;2022-08-01T03:16:41;4.22;;;1.08;;
50779;SDS011;36748;37.428;-121.972;2022-08-01T03:19:11;2.42;;;0.98;;
50779;SDS011;36748;37.428;-121.972;2022-08-01T03:21:38;1.42;;;1.00;;
50779;SDS011;36748;37.428;-121.972;2022-08-01T03:24:05;1.25;;;1.15;;
50779;SDS011;36748;37.428;-121.972;2022-08-01T03:26:33;1.00;;;0.95;;
50779;SDS011;36748;37.428;-121.972;2022-08-01T03:29:04;1.30;;;1.10;;
50779;SDS011;36748;37.428;-121.972;2022-08-01T03:31:34;1.23;;;1.00;;
50779;SDS011;36748;37.428;-121.972;2022-08-01T03:34:01;0.85;;;0.82;;
50779;SDS011;36748;37.428;-121.972;2022-08-01T03:36:28;2.75;;;1.20;;
50779;SDS011;36748;37.428;-121.972;2022-08-01T03:38:56;1.25;;;1.08;;
50779;SDS011;36748;37.428;-121.972;2022-08-01T03:41:24;3.60;;;0.93;;
50779;SDS011;36748;37.428;-121.972;2022-08-01T03:44:03;1.40;;;1.00;;
50779;SDS011;36748;37.428;-121.972;2022-08-01T03:46:34;1.08;;;0.98;;
50779;SDS011;36748;37.428;-121.972;2022-08-01T03:49:06;2.08;;;1.10;;
50779;SDS011;36748;37.428;-121.972;2022-08-01T03:51:37;3.03;;;1.02;;
50779;SDS011;36748;37.428;-121.972;2022-08-01T03:54:04;6.00;;;1.10;;
50779;SDS011;36748;37.428;-121.972;2022-08-01T03:56:31;11.05;;;1.13;;
50779;SDS011;36748;37.428;-121.972;2022-08-01T03:58:59;12.98;;;1.33;;
50779;SDS011;36748;37.428;-121.972;2022-08-01T04:01:25;3.80;;;1.05;;
50779;SDS011;36748;37.428;-121.972;2022-08-01T04:03:53;7.75;;;1.55;;
50779;SDS011;36748;37.428;-121.972;2022-08-01T04:06:19;6.03;;;1.30;;
50779;SDS011;36748;37.428;-121.972;2022-08-01T04:08:46;8.52;;;1.70;;
50779;SDS011;36748;37.428;-121.972;2022-08-01T04:11:21;10.88;;;1.13;;
50779;SDS011;36748;37.428;-121.972;2022-08-01T04:13:52;4.85;;;0.88;;
50779;SDS011;36748;37.428;-121.972;2022-08-01T04:16:20;5.30;;;0.98;;
50779;SDS011;36748;37.428;-121.972;2022-08-01T04:18:49;3.75;;;1.10;;
50779;SDS011;36748;37.428;-121.972;2022-08-01T04:21:17;4.68;;;0.95;;
50779;SDS011;36748;37.428;-121.972;2022-08-01T04:23:47;3.65;;;0.80;;
50779;SDS011;36748;37.428;-121.972;2022-08-01T04:26:18;5.25;;;0.70;;
50779;SDS011;36748;37.428;-121.972;2022-08-01T04:28:44;3.78;;;0.80;;
50779;SDS011;36748;37.428;-121.972;2022-08-01T04:31:11;2.67;;;0.90;;
50779;SDS011;36748;37.428;-121.972;2022-08-01T04:33:40;2.38;;;0.90;;
50779;SDS011;36748;37.428;-121.972;2022-08-01T04:36:10;8.02;;;0.90;;
50779;SDS011;36748;37.428;-121.972;2022-08-01T04:38:38;1.83;;;0.73;;
50779;SDS011;36748;37.428;-121.972;2022-08-01T04:41:06;2.90;;;0.85;;
50779;SDS011;36748;37.428;-121.972;2022-08-01T04:43:33;4.25;;;0.80;;
50779;SDS011;36748;37.428;-121.972;2022-08-01T04:45:59;1.73;;;0.80;;
50779;SDS011;36748;37.428;-121.972;2022-08-01T04:48:29;1.33;;;0.73;;
50779;SDS011;36748;37.428;-121.972;2022-08-01T04:50:56;5.28;;;0.88;;
50779;SDS011;36748;37.428;-121.972;2022-08-01T04:53:22;2.83;;;1.15;;
50779;SDS011;36748;37.428;-121.972;2022-08-01T04:55:48;1.70;;;0.80;;
50779;SDS011;36748;37.428;-121.972;2022-08-01T04:58:15;0.98;;;0.80;;
50779;SDS011;36748;37.428;-121.972;2022-08-01T05:00:41;5.30;;;0.88;;
50779;SDS011;36748;37.428;-121.972;2022-08-01T05:03:08;2.88;;;0.80;;
50779;SDS011;36748;37.428;-121.972;2022-08-01T05:05:34;2.25;;;0.80;;
50779;SDS011;36748;37.428;-121.972;2022-08-01T05:08:00;0.82;;;0.80;;
50779;SDS011;36748;37.428;-121.972;2022-08-01T05:10:27;3.22;;;1.10;;
50779;SDS011;36748;37.428;-121.972;2022-08-01T05:12:53;0.95;;;0.80;;
50779;SDS011;36748;37.428;-121.972;2022-08-01T05:15:19;2.40;;;0.90;;
50779;SDS011;36748;37.428;-121.972;2022-08-01T05:17:46;1.85;;;0.85;;
50779;SDS011;36748;37.428;-121.972;2022-08-01T05:20:12;6.95;;;0.95;;
50779;SDS011;36748;37.428;-121.972;2022-08-01T05:22:38;2.05;;;0.75;;
50779;SDS011;36748;37.428;-121.972;2022-08-01T05:25:05;2.85;;;1.02;;
50779;SDS011;36748;37.428;-121.972;2022-08-01T05:27:32;1.33;;;1.10;;
50779;SDS011;36748;37.428;-121.972;2022-08-01T05:30:03;1.10;;;0.90;;
50779;SDS011;36748;37.428;-121.972;2022-08-01T05:32:30;1.40;;;1.13;;
50779;SDS011;36748;37.428;-121.972;2022-08-01T05:34:59;1.00;;;0.90;;
50779;SDS011;36748;37.428;-121.972;2022-08-01T05:37:25;3.17;;;1.17;;
50779;SDS011;36748;37.428;-121.972;2022-08-01T05:39:52;1.77;;;1.10;;
50779;SDS011;36748;37.428;-121.972;2022-08-01T05:42:18;1.95;;;1.05;;
50779;SDS011;36748;37.428;-121.972;2022-08-01T05:44:44;0.85;;;0.82;;
50779;SDS011;36748;37.428;-121.972;2022-08-01T05:47:10;2.58;;;1.10;;
50779;SDS011;36748;37.428;-121.972;2022-08-01T05:49:36;1.20;;;0.90;;
50779;SDS011;36748;37.428;-121.972;2022-08-01T05:52:03;1.00;;;0.90;;
50779;SDS011;36748;37.428;-121.972;2022-08-01T05:54:30;0.90;;;0.90;;
50779;SDS011;36748;37.428;-121.972;2022-08-01T05:56:56;1.83;;;1.15;;
50779;SDS011;36748;37.428;-121.972;2022-08-01T05:59:25;1.58;;;1.17;;
50779;SDS011;36748;37.428;-121.972;2022-08-01T06:01:51;2.03;;;0.95;;
50779;SDS011;36748;37.428;-121.972;2022-08-01T06:04:17;2.15;;;1.10;;
50779;SDS011;36748;37.428;-121.972;2022-08-01T06:06:43;1.75;;;1.23;;
50779;SDS011;36748;37.428;-121.972;2022-08-01T06:09:10;2.20;;;1.30;;
50779;SDS011;36748;37.428;-121.972;2022-08-01T06:11:36;1.75;;;1.30;;
50779;SDS011;36748;37.428;-121.972;2022-08-01T06:14:02;1.58;;;1.23;;
50779;SDS011;36748;37.428;-121.972;2022-08-01T06:16:28;1.30;;;1.20;;
50779;SDS011;36748;37.428;-121.972;2022-08-01T06:18:54;2.58;;;1.20;;
50779;SDS011;36748;37.428;-121.972;2022-08-01T06:21:21;1.30;;;1.20;;
50779;SDS011;36748;37.428;-121.972;2022-08-01T06:23:47;1.80;;;1.30;;
50779;SDS011;36748;37.428;-121.972;2022-08-01T06:26:13;1.50;;;1.40;;
50779;SDS011;36748;37.428;-121.972;2022-08-01T06:28:39;2.42;;;1.45;;
50779;SDS011;36748;37.428;-121.972;2022-08-01T06:31:05;1.83;;;1.33;;
50779;SDS011;36748;37.428;-121.972;2022-08-01T06:33:31;1.50;;;1.40;;
50779;SDS011;36748;37.428;-121.972;2022-08-01T06:35:58;1.40;;;1.30;;
50779;SDS011;36748;37.428;-121.972;2022-08-01T06:38:24;1.38;;;1.27;;
50779;SDS011;36748;37.428;-121.972;2022-08-01T06:40:50;1.33;;;1.17;;
50779;SDS011;36748;37.428;-121.972;2022-08-01T06:43:16;1.60;;;1.50;;
50779;SDS011;36748;37.428;-121.972;2022-08-01T06:45:43;1.50;;;1.40;;
50779;SDS011;36748;37.428;-121.972;2022-08-01T06:48:10;3.28;;;1.55;;
50779;SDS011;36748;37.428;-121.972;2022-08-01T06:50:36;1.50;;;1.40;;
50779;SDS011;36748;37.428;-121.972;2022-08-01T06:53:02;1.75;;;1.65;;
50779;SDS011;36748;37.428;-121.972;2022-08-01T06:55:28;1.70;;;1.58;;
50779;SDS011;36748;37.428;-121.972;2022-08-01T06:57:55;2.15;;;1.95;;
50779;SDS011;36748;37.428;-121.972;2022-08-01T07:00:22;1.70;;;1.55;;
50779;SDS011;36748;37.428;-121.972;2022-08-01T07:02:50;1.70;;;1.60;;
50779;SDS011;36748;37.428;-121.972;2022-08-01T07:05:17;1.63;;;1.52;;
50779;SDS011;36748;37.428;-121.972;2022-08-01T07:07:43;2.03;;;1.50;;
50779;SDS011;36748;37.428;-121.972;2022-08-01T07:10:09;2.28;;;1.60;;
50779;SDS011;36748;37.428;-121.972;2022-08-01T07:12:36;2.13;;;1.88;;
50779;SDS011;36748;37.428;-121.972;2022-08-01T07:15:06;2.28;;;1.90;;
50779;SDS011;36748;37.428;-121.972;2022-08-01T07:17:40;1.88;;;1.50;;
50779;SDS011;36748;37.428;-121.972;2022-08-01T07:20:07;2.60;;;1.95;;
50779;SDS011;36748;37.428;-121.972;2022-08-01T07:22:35;2.22;;;1.65;;
50779;SDS011;36748;37.428;-121.972;2022-08-01T07:25:02;4.13;;;1.95;;
50779;SDS011;36748;37.428;-121.972;2022-08-01T07:27:30;1.92;;;1.70;;
50779;SDS011;36748;37.428;-121.972;2022-08-01T07:29:56;2.80;;;1.70;;
50779;SDS011;36748;37.428;-121.972;2022-08-01T07:32:22;2.17;;;1.90;;
50779;SDS011;36748;37.428;-121.972;2022-08-01T07:34:48;1.80;;;1.70;;
50779;SDS011;36748;37.428;-121.972;2022-08-01T07:37:14;2.33;;;1.77;;
50779;SDS011;36748;37.428;-121.972;2022-08-01T07:39:40;2.15;;;1.80;;
50779;SDS011;36748;37.428;-121.972;2022-08-01T07:42:07;2.08;;;1.63;;
50779;SDS011;36748;37.428;-121.972;2022-08-01T07:44:33;4.95;;;1.92;;
50779;SDS011;36748;37.428;-121.972;2022-08-01T07:47:00;2.92;;;1.85;;
50779;SDS011;36748;37.428;-121.972;2022-08-01T07:49:26;3.50;;;1.75;;
50779;SDS011;36748;37.428;-121.972;2022-08-01T07:51:52;2.17;;;1.98;;
50779;SDS011;36748;37.428;-121.972;2022-08-01T07:54:19;1.85;;;1.73;;
50779;SDS011;36748;37.428;-121.972;2022-08-01T07:56:45;1.92;;;1.83;;
50779;SDS011;36748;37.428;-121.972;2022-08-01T07:59:11;3.97;;;1.90;;
50779;SDS011;36748;37.428;-121.972;2022-08-01T08:01:37;2.58;;;1.98;;
50779;SDS011;36748;37.428;-121.972;2022-08-01T08:04:04;2.72;;;1.80;;
50779;SDS011;36748;37.428;-121.972;2022-08-01T08:06:30;2.63;;;2.00;;
50779;SDS011;36748;37.428;-121.972;2022-08-01T08:08:56;1.98;;;1.85;;
50779;SDS011;36748;37.428;-121.972;2022-08-01T08:11:31;2.00;;;1.73;;
50779;SDS011;36748;37.428;-121.972;2022-08-01T08:13:57;2.47;;;1.80;;
50779;SDS011;36748;37.428;-121.972;2022-08-01T08:16:24;4.47;;;2.22;;
50779;SDS011;36748;37.428;-121.972;2022-08-01T08:18:51;2.28;;;1.95;;
50779;SDS011;36748;37.428;-121.972;2022-08-01T08:21:17;3.92;;;2.35;;
50779;SDS011;36748;37.428;-121.972;2022-08-01T08:23:44;1.90;;;1.60;;
50779;SDS011;36748;37.428;-121.972;2022-08-01T08:26:28;3.08;;;1.83;;
50779;SDS011;36748;37.428;-121.972;2022-08-01T08:28:54;2.30;;;2.10;;
50779;SDS011;36748;37.428;-121.972;2022-08-01T08:31:20;3.15;;;1.77;;
50779;SDS011;36748;37.428;-121.972;2022-08-01T08:33:46;2.30;;;2.10;;
50779;SDS011;36748;37.428;-121.972;2022-08-01T08:36:13;3.67;;;1.65;;
50779;SDS011;36748;37.428;-121.972;2022-08-01T08:38:40;2.28;;;1.90;;
50779;SDS011;36748;37.428;-121.972;2022-08-01T08:41:06;2.10;;;1.85;;
50779;SDS011;36748;37.428;-121.972;2022-08-01T08:43:33;2.15;;;1.92;;
50779;SDS011;36748;37.428;-121.972;2022-08-01T08:46:01;2.15;;;2.00;;
50779;SDS011;36748;37.428;-121.972;2022-08-01T08:48:27;1.80;;;1.70;;
50779;SDS011;36748;37.428;-121.972;2022-08-01T08:50:53;2.08;;;1.88;;
50779;SDS011;36748;37.428;-121.972;2022-08-01T08:53:21;2.25;;;1.95;;
50779;SDS011;36748;37.428;-121.972;2022-08-01T08:55:47;4.30;;;2.03;;
50779;SDS011;36748;37.428;-121.972;2022-08-01T08:58:14;2.38;;;1.88;;
50779;SDS011;36748;37.428;-121.972;2022-08-01T09:00:43;2.28;;;1.88;;
50779;SDS011;36748;37.428;-121.972;2022-08-01T09:03:10;2.20;;;2.00;;
50779;SDS011;36748;37.428;-121.972;2022-08-01T09:05:37;3.05;;;2.20;;
50779;SDS011;36748;37.428;-121.972;2022-08-01T09:08:06;2.25;;;2.05;;
50779;SDS011;36748;37.428;-121.972;2022-08-01T09:10:33;1.80;;;1.70;;
50779;SDS011;36748;37.428;-121.972;2022-08-01T09:13:09;4.32;;;2.00;;
50779;SDS011;36748;37.428;-121.972;2022-08-01T09:15:38;2.25;;;2.05;;
50779;SDS011;36748;37.428;-121.972;2022-08-01T09:18:30;2.33;;;2.10;;
50779;SDS011;36748;37.428;-121.972;2022-08-01T09:23:44;2.28;;;2.08;;
50779;SDS011;36748;37.428;-121.972;2022-08-01T09:26:12;2.72;;;2.40;;
50779;SDS011;36748;37.428;-121.972;2022-08-01T09:28:39;2.28;;;2.08;;
50779;SDS011;36748;37.428;-121.972;2022-08-01T09:31:07;2.47;;;2.13;;
50779;SDS011;36748;37.428;-121.972;2022-08-01T09:39:20;3.90;;;2.40;;
50779;SDS011;36748;37.428;-121.972;2022-08-01T09:41:53;2.17;;;1.98;;
50779;SDS011;36748;37.428;-121.972;2022-08-01T09:44:36;2.20;;;2.00;;
50779;SDS011;36748;37.428;-121.972;2022-08-01T09:47:10;2.58;;;2.33;;
50779;SDS011;36748;37.428;-121.972;2022-08-01T09:49:37;3.30;;;2.10;;
50779;SDS011;36748;37.428;-121.972;2022-08-01T09:52:12;2.90;;;2.10;;
50779;SDS011;36748;37.428;-121.972;2022-08-01T09:54:39;2.40;;;2.20;;
50779;SDS011;36748;37.428;-121.972;2022-08-01T09:57:13;2.22;;;2.03;;
50779;SDS011;36748;37.428;-121.972;2022-08-01T09:59:45;2.20;;;1.95;;
50779;SDS011;36748;37.428;-121.972;2022-08-01T10:02:14;2.78;;;2.38;;
50779;SDS011;36748;37.428;-121.972;2022-08-01T10:05:02;2.85;;;2.30;;
50779;SDS011;36748;37.428;-121.972;2022-08-01T10:07:30;2.80;;;2.30;;
50779;SDS011;36748;37.428;-121.972;2022-08-01T10:10:08;2.80;;;2.33;;
50779;SDS011;36748;37.428;-121.972;2022-08-01T10:12:38;2.78;;;2.40;;
50779;SDS011;36748;37.428;-121.972;2022-08-01T10:15:06;4.93;;;2.60;;
50779;SDS011;36748;37.428;-121.972;2022-08-01T10:17:33;2.40;;;2.20;;
50779;SDS011;36748;37.428;-121.972;2022-08-01T10:20:01;2.40;;;1.90;;
50779;SDS011;36748;37.428;-121.972;2022-08-01T10:22:30;2.38;;;2.15;;
50779;SDS011;36748;37.428;-121.972;2022-08-01T10:24:59;2.58;;;2.38;;
50779;SDS011;36748;37.428;-121.972;2022-08-01T10:27:28;3.10;;;2.45;;
50779;SDS011;36748;37.428;-121.972;2022-08-01T10:29:56;2.55;;;2.15;;
50779;SDS011;36748;37.428;-121.972;2022-08-01T10:32:28;2.47;;;2.28;;
50779;SDS011;36748;37.428;-121.972;2022-08-01T10:34:55;2.70;;;2.50;;
50779;SDS011;36748;37.428;-121.972;2022-08-01T10:37:22;2.67;;;2.47;;
50779;SDS011;36748;37.428;-121.972;2022-08-01T10:39:48;2.60;;;2.40;;
50779;SDS011;36748;37.428;-121.972;2022-08-01T10:42:17;2.50;;;2.30;;
50779;SDS011;36748;37.428;-121.972;2022-08-01T10:44:44;2.35;;;2.15;;
50779;SDS011;36748;37.428;-121.972;2022-08-01T10:47:15;2.30;;;2.10;;
50779;SDS011;36748;37.428;-121.972;2022-08-01T10:53:06;3.03;;;2.40;;
50779;SDS011;36748;37.428;-121.972;2022-08-01T10:58:22;2.92;;;2.55;;
50779;SDS011;36748;37.428;-121.972;2022-08-01T11:01:11;3.50;;;2.67;;
50779;SDS011;36748;37.428;-121.972;2022-08-01T11:03:38;2.45;;;2.25;;
50779;SDS011;36748;37.428;-121.972;2022-08-01T11:06:04;3.35;;;2.60;;
50779;SDS011;36748;37.428;-121.972;2022-08-01T11:08:31;3.08;;;2.72;;
50779;SDS011;36748;37.428;-121.972;2022-08-01T11:11:01;3.15;;;2.50;;
50779;SDS011;36748;37.428;-121.972;2022-08-01T11:16:35;2.70;;;2.33;;
50779;SDS011;36748;37.428;-121.972;2022-08-01T11:19:03;4.47;;;2.92;;
50779;SDS011;36748;37.428;-121.972;2022-08-01T11:27:16;4.40;;;2.35;;
50779;SDS011;36748;37.428;-121.972;2022-08-01T11:32:53;4.07;;;2.65;;
50779;SDS011;36748;37.428;-121.972;2022-08-01T11:35:21;3.55;;;2.50;;
50779;SDS011;36748;37.428;-121.972;2022-08-01T11:37:50;3.65;;;2.50;;
50779;SDS011;36748;37.428;-121.972;2022-08-01T11:40:27;2.55;;;2.30;;
50779;SDS011;36748;37.428;-121.972;2022-08-01T11:45:48;3.75;;;2.55;;
50779;SDS011;36748;37.428;-121.972;2022-08-01T11:48:19;3.88;;;2.65;;
50779;SDS011;36748;37.428;-121.972;2022-08-01T11:50:46;2.42;;;2.22;;
50779;SDS011;36748;37.428;-121.972;2022-08-01T11:53:13;3.05;;;2.75;;
50779;SDS011;36748;37.428;-121.972;2022-08-01T11:55:45;2.45;;;2.25;;
50779;SDS011;36748;37.428;-121.972;2022-08-01T11:58:13;2.72;;;2.50;;
50779;SDS011;36748;37.428;-121.972;2022-08-01T12:00:40;3.25;;;2.40;;
50779;SDS011;36748;37.428;-121.972;2022-08-01T12:03:08;4.05;;;2.42;;
50779;SDS011;36748;37.428;-121.972;2022-08-01T12:05:34;4.97;;;2.45;;
50779;SDS011;36748;37.428;-121.972;2022-08-01T12:08:04;2.50;;;2.30;;
50779;SDS011;36748;37.428;-121.972;2022-08-01T12:10:33;5.43;;;2.45;;
50779;SDS011;36748;37.428;-121.972;2022-08-01T12:13:03;2.95;;;2.10;;
50779;SDS011;36748;37.428;-121.972;2022-08-01T12:15:32;4.88;;;2.80;;
50779;SDS011;36748;37.428;-121.972;2022-08-01T12:18:00;2.58;;;2.38;;
50779;SDS011;36748;37.428;-121.972;2022-08-01T12:20:36;3.92;;;2.40;;
50779;SDS011;36748;37.428;-121.972;2022-08-01T12:23:04;2.75;;;2.45;;
50779;SDS011;36748;37.428;-121.972;2022-08-01T12:25:32;5.65;;;2.20;;
50779;SDS011;36748;37.428;-121.972;2022-08-01T12:28:03;3.38;;;2.22;;
50779;SDS011;36748;37.428;-121.972;2022-08-01T12:30:30;5.07;;;2.38;;
50779;SDS011;36748;37.428;-121.972;2022-08-01T12:33:00;2.42;;;2.22;;
50779;SDS011;36748;37.428;-121.972;2022-08-01T12:35:28;2.70;;;2.50;;
50779;SDS011;36748;37.428;-121.972;2022-08-01T12:37:59;2.65;;;2.28;;
50779;SDS011;36748;37.428;-121.972;2022-08-01T12:40:29;3.05;;;2.45;;
50779;SDS011;36748;37.428;-121.972;2022-08-01T12:43:00;2.97;;;2.47;;
50779;SDS011;36748;37.428;-121.972;2022-08-01T12:45:28;4.97;;;2.55;;
50779;SDS011;36748;37.428;-121.972;2022-08-01T12:47:58;2.60;;;2.40;;
50779;SDS011;36748;37.428;-121.972;2022-08-01T12:50:26;2.78;;;2.17;;
50779;SDS011;36748;37.428;-121.972;2022-08-01T12:52:56;3.60;;;2.20;;
50779;SDS011;36748;37.428;-121.972;2022-08-01T12:55:23;2.58;;;2.20;;
50779;SDS011;36748;37.428;-121.972;2022-08-01T12:58:04;2.65;;;2.35;;
50779;SDS011;36748;37.428;-121.972;2022-08-01T13:00:35;4.10;;;2.60;;
50779;SDS011;36748;37.428;-121.972;2022-08-01T13:03:05;6.35;;;2.33;;
50779;SDS011;36748;37.428;-121.972;2022-08-01T13:10:35;2.28;;;2.00;;
50779;SDS011;36748;37.428;-121.972;2022-08-01T13:13:01;5.85;;;2.40;;
50779;SDS011;36748;37.428;-121.972;2022-08-01T13:15:29;3.28;;;1.98;;
50779;SDS011;36748;37.428;-121.972;2022-08-01T13:17:58;2.40;;;2.10;;
50779;SDS011;36748;37.428;-121.972;2022-08-01T13:20:29;3.20;;;2.45;;
50779;SDS011;36748;37.428;-121.972;2022-08-01T13:23:16;2.53;;;2.05;;
50779;SDS011;36748;37.428;-121.972;2022-08-01T13:25:53;2.47;;;2.28;;
50779;SDS011;36748;37.428;-121.972;2022-08-01T13:30:54;2.53;;;2.33;;
50779;SDS011;36748;37.428;-121.972;2022-08-01T13:33:22;2.28;;;1.95;;
50779;SDS011;36748;37.428;-121.972;2022-08-01T13:35:51;2.47;;;2.10;;
50779;SDS011;36748;37.428;-121.972;2022-08-01T13:38:21;2.60;;;2.40;;
50779;SDS011;36748;37.428;-121.972;2022-08-01T13:41:07;2.40;;;2.13;;
50779;SDS011;36748;37.428;-121.972;2022-08-01T13:43:34;2.22;;;1.80;;
50779;SDS011;36748;37.428;-121.972;2022-08-01T13:46:01;2.40;;;2.20;;
50779;SDS011;36748;37.428;-121.972;2022-08-01T13:48:29;2.20;;;2.00;;
50779;SDS011;36748;37.428;-121.972;2022-08-01T13:50:56;4.50;;;2.22;;
50779;SDS011;36748;37.428;-121.972;2022-08-01T13:53:22;4.93;;;1.98;;
50779;SDS011;36748;37.428;-121.972;2022-08-01T13:55:48;2.30;;;2.10;;
50779;SDS011;36748;37.428;-121.972;2022-08-01T13:58:14;3.85;;;2.10;;
50779;SDS011;36748;37.428;-121.972;2022-08-01T14:00:41;1.85;;;1.75;;
50779;SDS011;36748;37.428;-121.972;2022-08-01T14:03:07;3.15;;;1.90;;
50779;SDS011;36748;37.428;-121.972;2022-08-01T14:05:35;2.30;;;2.10;;
50779;SDS011;36748;37.428;-121.972;2022-08-01T14:08:02;4.90;;;2.38;;
50779;SDS011;36748;37.428;-121.972;2022-08-01T14:10:31;7.22;;;2.35;;
50779;SDS011;36748;37.428;-121.972;2022-08-01T14:12:57;14.80;;;2.50;;
50779;SDS011;36748;37.428;-121.972;2022-08-01T14:15:24;9.85;;;2.50;;
50779;SDS011;36748;37.428;-121.972;2022-08-01T14:17:50;10.10;;;3.05;;
50779;SDS011;36748;37.428;-121.972;2022-08-01T14:20:17;16.33;;;3.88;;
50779;SDS011;36748;37.428;-121.972;2022-08-01T14:22:45;16.33;;;3.50;;
50779;SDS011;36748;37.428;-121.972;2022-08-01T14:25:12;17.75;;;4.20;;
50779;SDS011;36748;37.428;-121.972;2022-08-01T14:27:38;19.30;;;4.20;;
50779;SDS011;36748;37.428;-121.972;2022-08-01T14:33:08;15.50;;;5.05;;
50779;SDS011;36748;37.428;-121.972;2022-08-01T14:35:35;16.05;;;4.88;;
50779;SDS011;36748;37.428;-121.972;2022-08-01T14:38:01;12.52;;;4.38;;
50779;SDS011;36748;37.428;-121.972;2022-08-01T14:40:28;12.30;;;4.32;;
50779;SDS011;36748;37.428;-121.972;2022-08-01T14:42:54;11.50;;;5.10;;
50779;SDS011;36748;37.428;-121.972;2022-08-01T14:45:20;7.75;;;4.22;;
50779;SDS011;36748;37.428;-121.972;2022-08-01T14:47:46;12.15;;;5.30;;
50779;SDS011;36748;37.428;-121.972;2022-08-01T14:50:13;13.60;;;4.45;;
50779;SDS011;36748;37.428;-121.972;2022-08-01T14:52:41;10.98;;;4.38;;
50779;SDS011;36748;37.428;-121.972;2022-08-01T14:55:08;10.48;;;3.83;;
50779;SDS011;36748;37.428;-121.972;2022-08-01T14:57:36;9.43;;;4.28;;
50779;SDS011;36748;37.428;-121.972;2022-08-01T15:00:04;10.18;;;3.92;;
50779;SDS011;36748;37.428;-121.972;2022-08-01T15:02:35;7.22;;;4.15;;
50779;SDS011;36748;37.428;-121.972;2022-08-01T15:05:01;6.90;;;3.90;;
50779;SDS011;36748;37.428;-121.972;2022-08-01T15:07:28;7.35;;;3.47;;
50779;SDS011;36748;37.428;-121.972;2022-08-01T15:09:57;7.45;;;3.17;;